Fort Smith, MT

6:46 AM MDT on August 29, 2014 (GMT -0600)
Billings Logan International | Change Station
CLOSE
Current Station
Airport
Location: Billings,
Elevation: 3570 ft
Nearby Weather Stations

Elev 3570 ft 45.81 °N, 108.54 °W | Updated 53 minutes ago

Scattered Clouds
Scattered Clouds
56 °F
Feels Like 56 °F
N
4
Wind Variable Wind from WNW

Today
High -- | Low -- °F
--% Chance of Precip.
Yesterday
High -- | Low -- °F
Precip. -- in
6:29 AM 7:54 PM
Waxing Crescent, 14% visible
Pressure 30.01 in
Visibility 10.0 miles
Clouds Few 2200 ft
Scattered Clouds 11000 ft
Dew Point 50 °F
Humidity 80%
Rainfall 0.02 in
Snow Depth Not available.
UV 0 out of 12
Pollen 6.90 out of 12
Air Quality Not available.
Flu Activity Not available.
METAR KBIL 291153Z 29003KT 10SM FEW022 SCT110 13/10 A3010 RMK AO2 SLP162 60002 70014 T01330100 10206 20133 51008

More Conditions Fewer Conditions

Pressure 30.01 in
Visibility 10.0 miles
Clouds Few 2200 ft
Scattered Clouds 11000 ft
Dew Point 50 °F
Humidity 80%
Rainfall 0.02 in
Snow Depth Not available.
UV 0 out of 12
Pollen 6.90 out of 12
Air Quality Not available.
Flu Activity Not available.
METAR KBIL 291153Z 29003KT 10SM FEW022 SCT110 13/10 A3010 RMK AO2 SLP162 60002 70014 T01330100 10206 20133 51008

More Conditions Fewer Conditions

10-Day Weather Forecast

Almanac

Astronomy

Aug. 29, 2014 Rise Set
Actual Time 6:29 AM MDT 7:54 PM MDT
Civil Twilight 5:58 AM MDT 8:24 PM MDT
Nautical Twilight 5:21 AM MDT 9:01 PM MDT
Astronomical Twilight 4:41 AM MDT 9:41 PM MDT
Moon 10:34 AM MDT 9:39 PM MDT
Length of Visible Light 14h 26m
Length of Day
13h 24m
Tomorrow will be 3m 1s shorter.
Waxing Crescent, 14% of the Moon is Illuminated
Today
Waxing Crescent
Sep 2
First Quarter
Sep 8
Full
Sep 15
Last Quarter
Sep 24
New

Today's Extremes

State Highs State Lows

Community

WunderPhotos

Upload Photos

1,748,221 photos uploaded!

Nearby

Snow Depth

Station Depth Elevation
Cole Creek 1 in 7850 ft
Burnt Mountain 0 in 5880 ft
White Mill 2 in 8700 ft
Fisher Creek 0 in 9100 ft
Northeast Entrance 0 in 7350 ft

Earthquake Activity

City Distance Mag. Time & Date
No recent earthquake activity has been reported nearby.
Minimum magnitude displayed is 2.5.

Coastal Water Temperatures

Place Temperature
No Stations Reporting

Nearby Weather Stations